sensor_id;sensor_type;location;lat;lon;timestamp;P1;durP1;ratioP1;P2;durP2;ratioP2
37955;SDS011;23776;51.592;7.180;2024-03-08T00:02:03;43.05;;;20.40;;
37955;SDS011;23776;51.592;7.180;2024-03-08T00:04:28;46.83;;;19.67;;
37955;SDS011;23776;51.592;7.180;2024-03-08T00:06:54;40.85;;;21.10;;
37955;SDS011;23776;51.592;7.180;2024-03-08T00:09:19;45.75;;;21.95;;
37955;SDS011;23776;51.592;7.180;2024-03-08T00:11:46;46.72;;;21.77;;
37955;SDS011;23776;51.592;7.180;2024-03-08T00:14:12;48.65;;;21.63;;
37955;SDS011;23776;51.592;7.180;2024-03-08T00:16:38;43.10;;;19.92;;
37955;SDS011;23776;51.592;7.180;2024-03-08T00:19:03;48.92;;;21.92;;
37955;SDS011;23776;51.592;7.180;2024-03-08T00:21:29;43.47;;;21.35;;
37955;SDS011;23776;51.592;7.180;2024-03-08T00:23:55;46.70;;;21.75;;
37955;SDS011;23776;51.592;7.180;2024-03-08T00:26:20;43.40;;;21.95;;
37955;SDS011;23776;51.592;7.180;2024-03-08T00:28:47;44.83;;;21.40;;
37955;SDS011;23776;51.592;7.180;2024-03-08T00:31:13;46.15;;;21.42;;
37955;SDS011;23776;51.592;7.180;2024-03-08T00:33:41;46.47;;;21.83;;
37955;SDS011;23776;51.592;7.180;2024-03-08T00:36:07;43.10;;;20.83;;
37955;SDS011;23776;51.592;7.180;2024-03-08T00:38:33;47.65;;;21.58;;
37955;SDS011;23776;51.592;7.180;2024-03-08T00:40:59;48.10;;;22.63;;
37955;SDS011;23776;51.592;7.180;2024-03-08T00:43:25;46.38;;;23.85;;
37955;SDS011;23776;51.592;7.180;2024-03-08T00:45:50;47.97;;;23.10;;
37955;SDS011;23776;51.592;7.180;2024-03-08T00:48:16;46.38;;;21.65;;
37955;SDS011;23776;51.592;7.180;2024-03-08T00:50:42;48.75;;;22.83;;
37955;SDS011;23776;51.592;7.180;2024-03-08T00:53:10;52.70;;;23.98;;
37955;SDS011;23776;51.592;7.180;2024-03-08T00:55:36;50.47;;;22.67;;
37955;SDS011;23776;51.592;7.180;2024-03-08T00:58:03;52.20;;;23.38;;
37955;SDS011;23776;51.592;7.180;2024-03-08T01:00:29;48.85;;;22.60;;
37955;SDS011;23776;51.592;7.180;2024-03-08T01:02:54;49.00;;;23.08;;
37955;SDS011;23776;51.592;7.180;2024-03-08T01:05:20;49.25;;;23.55;;
37955;SDS011;23776;51.592;7.180;2024-03-08T01:07:46;47.78;;;22.17;;
37955;SDS011;23776;51.592;7.180;2024-03-08T01:10:12;47.50;;;22.50;;
37955;SDS011;23776;51.592;7.180;2024-03-08T01:12:38;49.03;;;22.75;;
37955;SDS011;23776;51.592;7.180;2024-03-08T01:15:04;51.28;;;23.13;;
37955;SDS011;23776;51.592;7.180;2024-03-08T01:17:30;54.38;;;22.58;;
37955;SDS011;23776;51.592;7.180;2024-03-08T01:19:56;44.67;;;23.75;;
37955;SDS011;23776;51.592;7.180;2024-03-08T01:22:21;53.00;;;22.40;;
37955;SDS011;23776;51.592;7.180;2024-03-08T01:24:47;45.65;;;23.70;;
37955;SDS011;23776;51.592;7.180;2024-03-08T01:27:13;44.15;;;21.52;;
37955;SDS011;23776;51.592;7.180;2024-03-08T01:29:39;54.08;;;24.13;;
37955;SDS011;23776;51.592;7.180;2024-03-08T01:32:05;50.70;;;23.50;;
37955;SDS011;23776;51.592;7.180;2024-03-08T01:34:31;50.83;;;22.33;;
37955;SDS011;23776;51.592;7.180;2024-03-08T01:36:58;52.63;;;24.38;;
37955;SDS011;23776;51.592;7.180;2024-03-08T01:39:24;52.17;;;23.13;;
37955;SDS011;23776;51.592;7.180;2024-03-08T01:41:50;59.85;;;23.50;;
37955;SDS011;23776;51.592;7.180;2024-03-08T01:44:15;52.92;;;23.38;;
37955;SDS011;23776;51.592;7.180;2024-03-08T01:46:45;48.90;;;23.90;;
37955;SDS011;23776;51.592;7.180;2024-03-08T01:49:11;54.55;;;24.88;;
37955;SDS011;23776;51.592;7.180;2024-03-08T01:51:37;53.05;;;23.27;;
37955;SDS011;23776;51.592;7.180;2024-03-08T01:54:05;51.17;;;21.67;;
37955;SDS011;23776;51.592;7.180;2024-03-08T01:56:31;51.70;;;22.98;;
37955;SDS011;23776;51.592;7.180;2024-03-08T01:58:58;51.63;;;24.00;;
37955;SDS011;23776;51.592;7.180;2024-03-08T02:01:24;51.63;;;23.65;;
37955;SDS011;23776;51.592;7.180;2024-03-08T02:03:50;52.92;;;22.98;;
37955;SDS011;23776;51.592;7.180;2024-03-08T02:06:16;57.38;;;24.02;;
37955;SDS011;23776;51.592;7.180;2024-03-08T02:08:43;54.70;;;23.35;;
37955;SDS011;23776;51.592;7.180;2024-03-08T02:11:10;45.65;;;23.02;;
37955;SDS011;23776;51.592;7.180;2024-03-08T02:13:36;47.05;;;20.30;;
37955;SDS011;23776;51.592;7.180;2024-03-08T02:16:01;49.95;;;22.95;;
37955;SDS011;23776;51.592;7.180;2024-03-08T02:18:30;49.20;;;23.30;;
37955;SDS011;23776;51.592;7.180;2024-03-08T02:21:00;55.72;;;22.08;;
37955;SDS011;23776;51.592;7.180;2024-03-08T02:23:27;53.53;;;23.77;;
37955;SDS011;23776;51.592;7.180;2024-03-08T02:25:54;49.75;;;22.95;;
37955;SDS011;23776;51.592;7.180;2024-03-08T02:28:21;49.03;;;21.58;;
37955;SDS011;23776;51.592;7.180;2024-03-08T02:30:48;51.70;;;24.00;;
37955;SDS011;23776;51.592;7.180;2024-03-08T02:33:15;54.13;;;24.60;;
37955;SDS011;23776;51.592;7.180;2024-03-08T02:35:42;56.13;;;24.30;;
37955;SDS011;23776;51.592;7.180;2024-03-08T02:38:15;50.92;;;22.80;;
37955;SDS011;23776;51.592;7.180;2024-03-08T02:40:42;53.20;;;22.92;;
37955;SDS011;23776;51.592;7.180;2024-03-08T02:43:08;59.97;;;24.23;;
37955;SDS011;23776;51.592;7.180;2024-03-08T02:45:34;53.00;;;23.23;;
37955;SDS011;23776;51.592;7.180;2024-03-08T02:48:00;55.85;;;25.00;;
37955;SDS011;23776;51.592;7.180;2024-03-08T02:50:26;62.70;;;25.20;;
37955;SDS011;23776;51.592;7.180;2024-03-08T02:52:52;51.40;;;23.55;;
37955;SDS011;23776;51.592;7.180;2024-03-08T02:55:17;48.22;;;23.10;;
37955;SDS011;23776;51.592;7.180;2024-03-08T02:57:43;58.55;;;22.83;;
37955;SDS011;23776;51.592;7.180;2024-03-08T03:00:09;56.35;;;24.40;;
37955;SDS011;23776;51.592;7.180;2024-03-08T03:02:35;53.92;;;24.58;;
37955;SDS011;23776;51.592;7.180;2024-03-08T03:05:02;59.35;;;24.90;;
37955;SDS011;23776;51.592;7.180;2024-03-08T03:07:31;60.60;;;24.58;;
37955;SDS011;23776;51.592;7.180;2024-03-08T03:09:58;60.55;;;25.52;;
37955;SDS011;23776;51.592;7.180;2024-03-08T03:12:28;54.72;;;23.65;;
37955;SDS011;23776;51.592;7.180;2024-03-08T03:14:55;57.25;;;24.98;;
37955;SDS011;23776;51.592;7.180;2024-03-08T03:17:21;55.78;;;24.10;;
37955;SDS011;23776;51.592;7.180;2024-03-08T03:19:48;51.90;;;23.10;;
37955;SDS011;23776;51.592;7.180;2024-03-08T03:22:13;62.08;;;26.50;;
37955;SDS011;23776;51.592;7.180;2024-03-08T03:24:40;65.07;;;25.65;;
37955;SDS011;23776;51.592;7.180;2024-03-08T03:27:07;59.20;;;25.60;;
37955;SDS011;23776;51.592;7.180;2024-03-08T03:29:39;55.08;;;23.63;;
37955;SDS011;23776;51.592;7.180;2024-03-08T03:32:07;58.92;;;24.58;;
37955;SDS011;23776;51.592;7.180;2024-03-08T03:34:33;53.80;;;25.05;;
37955;SDS011;23776;51.592;7.180;2024-03-08T03:37:02;57.60;;;24.52;;
37955;SDS011;23776;51.592;7.180;2024-03-08T03:39:29;59.30;;;24.63;;
37955;SDS011;23776;51.592;7.180;2024-03-08T03:41:59;53.13;;;23.52;;
37955;SDS011;23776;51.592;7.180;2024-03-08T03:44:27;52.20;;;24.67;;
37955;SDS011;23776;51.592;7.180;2024-03-08T03:46:52;53.95;;;23.70;;
37955;SDS011;23776;51.592;7.180;2024-03-08T03:49:18;59.08;;;25.23;;
37955;SDS011;23776;51.592;7.180;2024-03-08T03:51:44;56.95;;;25.30;;
37955;SDS011;23776;51.592;7.180;2024-03-08T03:54:10;61.13;;;26.10;;
37955;SDS011;23776;51.592;7.180;2024-03-08T03:56:36;56.53;;;26.25;;
37955;SDS011;23776;51.592;7.180;2024-03-08T03:59:01;61.17;;;26.42;;
37955;SDS011;23776;51.592;7.180;2024-03-08T04:01:27;58.53;;;25.15;;
37955;SDS011;23776;51.592;7.180;2024-03-08T04:03:54;59.05;;;25.83;;
37955;SDS011;23776;51.592;7.180;2024-03-08T04:06:20;59.33;;;25.45;;
37955;SDS011;23776;51.592;7.180;2024-03-08T04:08:45;57.35;;;26.20;;
37955;SDS011;23776;51.592;7.180;2024-03-08T04:11:11;57.53;;;26.20;;
37955;SDS011;23776;51.592;7.180;2024-03-08T04:13:36;56.30;;;24.17;;
37955;SDS011;23776;51.592;7.180;2024-03-08T04:16:02;53.47;;;25.20;;
37955;SDS011;23776;51.592;7.180;2024-03-08T04:18:32;68.13;;;25.08;;
37955;SDS011;23776;51.592;7.180;2024-03-08T04:21:00;58.08;;;25.20;;
37955;SDS011;23776;51.592;7.180;2024-03-08T04:23:27;56.03;;;25.60;;
37955;SDS011;23776;51.592;7.180;2024-03-08T04:25:53;56.65;;;26.05;;
37955;SDS011;23776;51.592;7.180;2024-03-08T04:28:19;59.45;;;25.13;;
37955;SDS011;23776;51.592;7.180;2024-03-08T04:30:44;55.08;;;24.60;;
37955;SDS011;23776;51.592;7.180;2024-03-08T04:33:11;61.80;;;24.83;;
37955;SDS011;23776;51.592;7.180;2024-03-08T04:35:36;55.33;;;22.73;;
37955;SDS011;23776;51.592;7.180;2024-03-08T04:38:02;59.25;;;25.27;;
37955;SDS011;23776;51.592;7.180;2024-03-08T04:40:30;68.40;;;25.80;;
37955;SDS011;23776;51.592;7.180;2024-03-08T04:42:56;58.78;;;24.80;;
37955;SDS011;23776;51.592;7.180;2024-03-08T04:45:24;60.67;;;24.55;;
37955;SDS011;23776;51.592;7.180;2024-03-08T04:47:51;60.70;;;25.00;;
37955;SDS011;23776;51.592;7.180;2024-03-08T04:50:17;62.47;;;27.55;;
37955;SDS011;23776;51.592;7.180;2024-03-08T04:52:43;65.50;;;25.48;;
37955;SDS011;23776;51.592;7.180;2024-03-08T04:55:08;61.72;;;26.35;;
37955;SDS011;23776;51.592;7.180;2024-03-08T04:57:34;60.75;;;25.95;;
37955;SDS011;23776;51.592;7.180;2024-03-08T05:00:00;60.08;;;25.83;;
37955;SDS011;23776;51.592;7.180;2024-03-08T05:02:29;58.53;;;24.73;;
37955;SDS011;23776;51.592;7.180;2024-03-08T05:04:55;66.15;;;26.50;;
37955;SDS011;23776;51.592;7.180;2024-03-08T05:07:20;55.67;;;25.52;;
37955;SDS011;23776;51.592;7.180;2024-03-08T05:09:46;63.63;;;27.13;;
37955;SDS011;23776;51.592;7.180;2024-03-08T05:12:16;72.90;;;26.63;;
37955;SDS011;23776;51.592;7.180;2024-03-08T05:14:43;61.67;;;25.73;;
37955;SDS011;23776;51.592;7.180;2024-03-08T05:17:11;60.30;;;25.50;;
37955;SDS011;23776;51.592;7.180;2024-03-08T05:19:37;63.17;;;26.65;;
37955;SDS011;23776;51.592;7.180;2024-03-08T05:22:03;62.28;;;27.38;;
37955;SDS011;23776;51.592;7.180;2024-03-08T05:24:29;66.55;;;28.13;;
37955;SDS011;23776;51.592;7.180;2024-03-08T05:26:55;57.13;;;25.45;;
37955;SDS011;23776;51.592;7.180;2024-03-08T05:29:20;60.33;;;26.45;;
37955;SDS011;23776;51.592;7.180;2024-03-08T05:31:47;66.57;;;27.15;;
37955;SDS011;23776;51.592;7.180;2024-03-08T05:34:14;68.38;;;25.27;;
37955;SDS011;23776;51.592;7.180;2024-03-08T05:36:40;64.30;;;27.50;;
37955;SDS011;23776;51.592;7.180;2024-03-08T05:39:09;63.75;;;28.00;;
37955;SDS011;23776;51.592;7.180;2024-03-08T05:41:36;64.95;;;26.40;;
37955;SDS011;23776;51.592;7.180;2024-03-08T05:44:03;67.38;;;29.10;;
37955;SDS011;23776;51.592;7.180;2024-03-08T05:46:28;63.97;;;26.42;;
37955;SDS011;23776;51.592;7.180;2024-03-08T05:48:54;70.72;;;28.33;;
37955;SDS011;23776;51.592;7.180;2024-03-08T05:51:19;60.33;;;27.17;;
37955;SDS011;23776;51.592;7.180;2024-03-08T05:53:46;66.68;;;26.23;;
37955;SDS011;23776;51.592;7.180;2024-03-08T05:56:12;68.80;;;28.27;;
37955;SDS011;23776;51.592;7.180;2024-03-08T05:58:38;66.68;;;28.67;;
37955;SDS011;23776;51.592;7.180;2024-03-08T06:01:03;67.03;;;28.67;;
37955;SDS011;23776;51.592;7.180;2024-03-08T06:03:32;68.35;;;27.38;;
37955;SDS011;23776;51.592;7.180;2024-03-08T06:05:59;71.32;;;27.90;;
37955;SDS011;23776;51.592;7.180;2024-03-08T06:08:24;69.72;;;27.83;;
37955;SDS011;23776;51.592;7.180;2024-03-08T06:10:54;68.85;;;27.67;;
37955;SDS011;23776;51.592;7.180;2024-03-08T06:13:20;70.40;;;28.42;;
37955;SDS011;23776;51.592;7.180;2024-03-08T06:15:46;65.43;;;27.10;;
37955;SDS011;23776;51.592;7.180;2024-03-08T06:18:12;66.78;;;28.40;;
37955;SDS011;23776;51.592;7.180;2024-03-08T06:20:37;74.05;;;28.55;;
37955;SDS011;23776;51.592;7.180;2024-03-08T06:23:03;67.32;;;28.35;;
37955;SDS011;23776;51.592;7.180;2024-03-08T06:25:29;64.03;;;28.17;;
37955;SDS011;23776;51.592;7.180;2024-03-08T06:27:54;65.30;;;27.40;;
37955;SDS011;23776;51.592;7.180;2024-03-08T06:30:20;74.20;;;29.25;;
37955;SDS011;23776;51.592;7.180;2024-03-08T06:32:46;66.45;;;28.35;;
37955;SDS011;23776;51.592;7.180;2024-03-08T06:35:11;67.35;;;28.20;;
37955;SDS011;23776;51.592;7.180;2024-03-08T06:37:37;68.47;;;27.95;;
37955;SDS011;23776;51.592;7.180;2024-03-08T06:40:03;61.13;;;27.13;;
37955;SDS011;23776;51.592;7.180;2024-03-08T06:42:29;71.80;;;28.92;;
37955;SDS011;23776;51.592;7.180;2024-03-08T06:45:00;70.00;;;29.05;;
37955;SDS011;23776;51.592;7.180;2024-03-08T06:47:30;70.05;;;29.38;;
37955;SDS011;23776;51.592;7.180;2024-03-08T06:49:56;72.43;;;28.45;;
37955;SDS011;23776;51.592;7.180;2024-03-08T06:52:22;60.17;;;27.58;;
37955;SDS011;23776;51.592;7.180;2024-03-08T06:54:48;65.45;;;28.60;;
37955;SDS011;23776;51.592;7.180;2024-03-08T06:57:14;70.07;;;28.40;;
37955;SDS011;23776;51.592;7.180;2024-03-08T06:59:41;67.72;;;28.48;;
37955;SDS011;23776;51.592;7.180;2024-03-08T07:02:07;78.35;;;28.92;;
37955;SDS011;23776;51.592;7.180;2024-03-08T07:04:34;82.65;;;28.45;;
37955;SDS011;23776;51.592;7.180;2024-03-08T07:07:03;71.43;;;29.20;;
37955;SDS011;23776;51.592;7.180;2024-03-08T07:09:29;65.50;;;28.38;;
37955;SDS011;23776;51.592;7.180;2024-03-08T07:11:55;76.53;;;30.02;;
37955;SDS011;23776;51.592;7.180;2024-03-08T07:14:21;70.88;;;29.70;;
37955;SDS011;23776;51.592;7.180;2024-03-08T07:16:47;63.70;;;26.75;;
37955;SDS011;23776;51.592;7.180;2024-03-08T07:19:13;76.18;;;28.42;;
37955;SDS011;23776;51.592;7.180;2024-03-08T07:21:38;67.30;;;27.85;;
37955;SDS011;23776;51.592;7.180;2024-03-08T07:24:04;68.53;;;28.98;;
37955;SDS011;23776;51.592;7.180;2024-03-08T07:26:39;66.28;;;28.13;;
37955;SDS011;23776;51.592;7.180;2024-03-08T07:29:05;69.30;;;27.10;;
37955;SDS011;23776;51.592;7.180;2024-03-08T07:31:30;74.25;;;30.23;;
37955;SDS011;23776;51.592;7.180;2024-03-08T07:34:02;64.85;;;28.27;;
37955;SDS011;23776;51.592;7.180;2024-03-08T07:36:28;64.45;;;28.45;;
37955;SDS011;23776;51.592;7.180;2024-03-08T07:38:54;62.75;;;28.42;;
37955;SDS011;23776;51.592;7.180;2024-03-08T07:41:19;62.22;;;28.30;;
37955;SDS011;23776;51.592;7.180;2024-03-08T07:43:45;71.60;;;29.10;;
37955;SDS011;23776;51.592;7.180;2024-03-08T07:46:10;67.72;;;27.98;;
37955;SDS011;23776;51.592;7.180;2024-03-08T07:48:38;64.30;;;27.45;;
37955;SDS011;23776;51.592;7.180;2024-03-08T07:51:04;65.65;;;28.23;;
37955;SDS011;23776;51.592;7.180;2024-03-08T07:53:30;63.47;;;28.08;;
37955;SDS011;23776;51.592;7.180;2024-03-08T07:55:56;68.25;;;28.00;;
37955;SDS011;23776;51.592;7.180;2024-03-08T07:58:22;64.35;;;26.95;;
37955;SDS011;23776;51.592;7.180;2024-03-08T08:00:48;64.25;;;27.48;;
37955;SDS011;23776;51.592;7.180;2024-03-08T08:03:17;68.05;;;27.05;;
37955;SDS011;23776;51.592;7.180;2024-03-08T08:05:45;66.90;;;27.40;;
37955;SDS011;23776;51.592;7.180;2024-03-08T08:08:11;57.60;;;25.83;;
37955;SDS011;23776;51.592;7.180;2024-03-08T08:10:37;59.75;;;26.58;;
37955;SDS011;23776;51.592;7.180;2024-03-08T08:13:03;56.15;;;25.45;;
37955;SDS011;23776;51.592;7.180;2024-03-08T08:15:31;63.90;;;27.55;;
37955;SDS011;23776;51.592;7.180;2024-03-08T08:18:00;66.05;;;26.42;;
37955;SDS011;23776;51.592;7.180;2024-03-08T08:20:27;65.40;;;26.42;;
37955;SDS011;23776;51.592;7.180;2024-03-08T08:22:53;69.70;;;27.77;;
37955;SDS011;23776;51.592;7.180;2024-03-08T08:25:20;61.45;;;26.50;;
37955;SDS011;23776;51.592;7.180;2024-03-08T08:27:47;58.10;;;25.13;;
37955;SDS011;23776;51.592;7.180;2024-03-08T08:30:13;70.95;;;27.13;;
37955;SDS011;23776;51.592;7.180;2024-03-08T08:32:39;62.13;;;27.05;;
37955;SDS011;23776;51.592;7.180;2024-03-08T08:35:05;60.70;;;27.42;;
37955;SDS011;23776;51.592;7.180;2024-03-08T08:37:32;63.70;;;26.38;;
37955;SDS011;23776;51.592;7.180;2024-03-08T08:40:00;59.80;;;25.17;;
37955;SDS011;23776;51.592;7.180;2024-03-08T08:42:30;62.17;;;26.85;;
37955;SDS011;23776;51.592;7.180;2024-03-08T08:44:58;59.17;;;25.50;;
37955;SDS011;23776;51.592;7.180;2024-03-08T08:47:23;55.28;;;25.65;;
37955;SDS011;23776;51.592;7.180;2024-03-08T08:49:49;56.03;;;24.85;;
37955;SDS011;23776;51.592;7.180;2024-03-08T08:52:16;59.25;;;25.60;;
37955;SDS011;23776;51.592;7.180;2024-03-08T08:54:42;61.28;;;24.55;;
37955;SDS011;23776;51.592;7.180;2024-03-08T08:57:09;56.20;;;24.58;;
37955;SDS011;23776;51.592;7.180;2024-03-08T08:59:35;54.92;;;23.88;;
37955;SDS011;23776;51.592;7.180;2024-03-08T09:02:01;54.63;;;25.00;;
37955;SDS011;23776;51.592;7.180;2024-03-08T09:04:28;55.03;;;25.17;;
37955;SDS011;23776;51.592;7.180;2024-03-08T09:06:54;65.82;;;26.80;;
37955;SDS011;23776;51.592;7.180;2024-03-08T09:09:20;52.97;;;24.40;;
37955;SDS011;23776;51.592;7.180;2024-03-08T09:11:47;56.95;;;25.50;;
37955;SDS011;23776;51.592;7.180;2024-03-08T09:14:12;58.60;;;25.02;;
37955;SDS011;23776;51.592;7.180;2024-03-08T09:16:39;59.80;;;24.48;;
37955;SDS011;23776;51.592;7.180;2024-03-08T09:19:04;52.00;;;24.45;;
37955;SDS011;23776;51.592;7.180;2024-03-08T09:21:31;60.60;;;24.52;;
37955;SDS011;23776;51.592;7.180;2024-03-08T09:23:57;52.15;;;23.75;;
37955;SDS011;23776;51.592;7.180;2024-03-08T09:26:23;59.03;;;25.00;;
37955;SDS011;23776;51.592;7.180;2024-03-08T09:28:49;59.50;;;24.50;;
37955;SDS011;23776;51.592;7.180;2024-03-08T09:31:14;48.28;;;23.13;;
37955;SDS011;23776;51.592;7.180;2024-03-08T09:33:41;52.80;;;23.67;;
37955;SDS011;23776;51.592;7.180;2024-03-08T09:36:07;54.83;;;23.88;;
37955;SDS011;23776;51.592;7.180;2024-03-08T09:38:33;56.25;;;23.92;;
37955;SDS011;23776;51.592;7.180;2024-03-08T09:41:01;53.97;;;23.42;;
37955;SDS011;23776;51.592;7.180;2024-03-08T09:43:29;55.03;;;24.40;;
37955;SDS011;23776;51.592;7.180;2024-03-08T09:45:55;52.92;;;23.10;;
37955;SDS011;23776;51.592;7.180;2024-03-08T09:48:22;50.83;;;23.25;;
37955;SDS011;23776;51.592;7.180;2024-03-08T09:50:48;51.88;;;22.23;;
37955;SDS011;23776;51.592;7.180;2024-03-08T09:53:14;48.80;;;21.92;;
37955;SDS011;23776;51.592;7.180;2024-03-08T09:55:40;50.25;;;22.13;;
37955;SDS011;23776;51.592;7.180;2024-03-08T09:58:11;48.38;;;20.15;;
37955;SDS011;23776;51.592;7.180;2024-03-08T10:00:56;45.20;;;21.35;;
37955;SDS011;23776;51.592;7.180;2024-03-08T10:03:23;50.75;;;24.75;;
37955;SDS011;23776;51.592;7.180;2024-03-08T10:05:48;48.03;;;22.67;;
37955;SDS011;23776;51.592;7.180;2024-03-08T10:08:15;47.60;;;21.58;;
37955;SDS011;23776;51.592;7.180;2024-03-08T10:10:40;49.15;;;23.45;;
37955;SDS011;23776;51.592;7.180;2024-03-08T10:13:09;52.53;;;22.98;;
37955;SDS011;23776;51.592;7.180;2024-03-08T10:15:37;54.70;;;23.20;;
37955;SDS011;23776;51.592;7.180;2024-03-08T10:18:05;58.22;;;23.08;;
37955;SDS011;23776;51.592;7.180;2024-03-08T10:20:31;46.58;;;22.08;;
37955;SDS011;23776;51.592;7.180;2024-03-08T10:22:58;48.95;;;20.98;;
37955;SDS011;23776;51.592;7.180;2024-03-08T10:25:31;49.55;;;21.45;;
37955;SDS011;23776;51.592;7.180;2024-03-08T10:27:57;49.42;;;22.77;;
37955;SDS011;23776;51.592;7.180;2024-03-08T10:30:23;47.20;;;21.80;;
37955;SDS011;23776;51.592;7.180;2024-03-08T10:32:49;46.72;;;23.20;;
37955;SDS011;23776;51.592;7.180;2024-03-08T10:35:16;44.40;;;21.88;;
37955;SDS011;23776;51.592;7.180;2024-03-08T10:37:49;44.97;;;20.77;;
37955;SDS011;23776;51.592;7.180;2024-03-08T10:40:23;50.35;;;21.55;;
37955;SDS011;23776;51.592;7.180;2024-03-08T10:42:54;46.58;;;21.80;;
37955;SDS011;23776;51.592;7.180;2024-03-08T10:48:03;45.08;;;20.38;;
37955;SDS011;23776;51.592;7.180;2024-03-08T10:50:36;48.00;;;21.20;;
37955;SDS011;23776;51.592;7.180;2024-03-08T10:53:03;41.38;;;20.40;;
37955;SDS011;23776;51.592;7.180;2024-03-08T10:55:31;41.85;;;20.92;;
37955;SDS011;23776;51.592;7.180;2024-03-08T10:57:58;38.55;;;20.00;;
37955;SDS011;23776;51.592;7.180;2024-03-08T11:00:25;45.60;;;20.45;;
37955;SDS011;23776;51.592;7.180;2024-03-08T11:02:55;45.05;;;21.00;;
37955;SDS011;23776;51.592;7.180;2024-03-08T11:05:31;43.88;;;19.15;;
37955;SDS011;23776;51.592;7.180;2024-03-08T11:08:19;41.22;;;19.63;;
37955;SDS011;23776;51.592;7.180;2024-03-08T11:10:52;35.42;;;18.25;;
37955;SDS011;23776;51.592;7.180;2024-03-08T11:15:48;39.83;;;19.92;;
37955;SDS011;23776;51.592;7.180;2024-03-08T11:18:13;35.65;;;19.75;;
37955;SDS011;23776;51.592;7.180;2024-03-08T11:20:39;36.25;;;19.10;;
37955;SDS011;23776;51.592;7.180;2024-03-08T11:23:06;37.47;;;20.10;;
37955;SDS011;23776;51.592;7.180;2024-03-08T11:25:35;36.45;;;19.00;;
37955;SDS011;23776;51.592;7.180;2024-03-08T11:30:41;35.90;;;18.75;;
37955;SDS011;23776;51.592;7.180;2024-03-08T11:33:27;41.17;;;20.30;;
37955;SDS011;23776;51.592;7.180;2024-03-08T11:38:39;37.67;;;19.33;;
37955;SDS011;23776;51.592;7.180;2024-03-08T11:41:06;36.80;;;18.13;;
37955;SDS011;23776;51.592;7.180;2024-03-08T11:43:33;38.15;;;20.23;;
37955;SDS011;23776;51.592;7.180;2024-03-08T11:46:08;34.20;;;18.20;;
37955;SDS011;23776;51.592;7.180;2024-03-08T11:48:34;31.90;;;18.42;;
37955;SDS011;23776;51.592;7.180;2024-03-08T11:51:01;33.83;;;18.92;;
37955;SDS011;23776;51.592;7.180;2024-03-08T11:53:28;31.83;;;18.73;;
37955;SDS011;23776;51.592;7.180;2024-03-08T11:55:53;34.50;;;18.63;;
37955;SDS011;23776;51.592;7.180;2024-03-08T11:58:19;31.55;;;18.38;;
37955;SDS011;23776;51.592;7.180;2024-03-08T12:00:44;36.53;;;19.38;;
37955;SDS011;23776;51.592;7.180;2024-03-08T12:03:11;33.58;;;19.95;;
37955;SDS011;23776;51.592;7.180;2024-03-08T12:05:37;32.10;;;18.48;;
37955;SDS011;23776;51.592;7.180;2024-03-08T12:08:03;33.25;;;17.85;;
37955;SDS011;23776;51.592;7.180;2024-03-08T12:10:32;30.95;;;18.23;;
37955;SDS011;23776;51.592;7.180;2024-03-08T12:12:58;32.63;;;16.98;;
37955;SDS011;23776;51.592;7.180;2024-03-08T12:15:24;30.77;;;17.17;;
37955;SDS011;23776;51.592;7.180;2024-03-08T12:17:51;31.15;;;17.08;;
37955;SDS011;23776;51.592;7.180;2024-03-08T12:20:18;29.70;;;17.17;;
37955;SDS011;23776;51.592;7.180;2024-03-08T12:22:46;29.70;;;17.67;;
37955;SDS011;23776;51.592;7.180;2024-03-08T12:25:13;29.20;;;16.67;;
37955;SDS011;23776;51.592;7.180;2024-03-08T12:27:40;31.48;;;16.85;;
37955;SDS011;23776;51.592;7.180;2024-03-08T12:30:16;26.00;;;16.10;;
37955;SDS011;23776;51.592;7.180;2024-03-08T12:32:53;28.05;;;16.58;;
37955;SDS011;23776;51.592;7.180;2024-03-08T12:35:23;30.95;;;16.90;;
37955;SDS011;23776;51.592;7.180;2024-03-08T12:37:51;26.33;;;16.40;;
37955;SDS011;23776;51.592;7.180;2024-03-08T12:40:18;30.42;;;17.10;;
37955;SDS011;23776;51.592;7.180;2024-03-08T12:42:50;23.55;;;14.55;;
37955;SDS011;23776;51.592;7.180;2024-03-08T12:45:16;31.67;;;15.15;;
37955;SDS011;23776;51.592;7.180;2024-03-08T12:47:41;29.55;;;15.68;;
37955;SDS011;23776;51.592;7.180;2024-03-08T12:50:08;29.58;;;13.80;;
37955;SDS011;23776;51.592;7.180;2024-03-08T12:52:34;25.20;;;14.93;;
37955;SDS011;23776;51.592;7.180;2024-03-08T12:55:02;23.83;;;14.07;;
37955;SDS011;23776;51.592;7.180;2024-03-08T12:57:32;20.33;;;12.77;;
37955;SDS011;23776;51.592;7.180;2024-03-08T12:59:59;19.45;;;11.35;;
37955;SDS011;23776;51.592;7.180;2024-03-08T13:02:25;19.63;;;11.23;;
37955;SDS011;23776;51.592;7.180;2024-03-08T13:04:51;20.42;;;11.18;;
37955;SDS011;23776;51.592;7.180;2024-03-08T13:07:22;20.58;;;11.00;;
37955;SDS011;23776;51.592;7.180;2024-03-08T13:09:50;20.75;;;10.13;;
37955;SDS011;23776;51.592;7.180;2024-03-08T13:12:19;20.90;;;11.32;;
37955;SDS011;23776;51.592;7.180;2024-03-08T13:14:46;19.00;;;11.63;;
37955;SDS011;23776;51.592;7.180;2024-03-08T13:17:12;23.23;;;11.40;;
37955;SDS011;23776;51.592;7.180;2024-03-08T13:19:43;23.80;;;12.30;;
37955;SDS011;23776;51.592;7.180;2024-03-08T13:22:11;21.45;;;11.80;;
37955;SDS011;23776;51.592;7.180;2024-03-08T13:24:41;21.15;;;11.05;;
37955;SDS011;23776;51.592;7.180;2024-03-08T13:27:07;21.90;;;10.95;;
37955;SDS011;23776;51.592;7.180;2024-03-08T13:29:44;21.10;;;11.43;;
37955;SDS011;23776;51.592;7.180;2024-03-08T13:32:11;18.88;;;11.88;;
37955;SDS011;23776;51.592;7.180;2024-03-08T13:34:40;21.92;;;12.10;;
37955;SDS011;23776;51.592;7.180;2024-03-08T13:37:06;22.20;;;11.85;;
37955;SDS011;23776;51.592;7.180;2024-03-08T13:39:34;22.75;;;11.88;;
37955;SDS011;23776;51.592;7.180;2024-03-08T13:42:06;23.05;;;12.75;;
37955;SDS011;23776;51.592;7.180;2024-03-08T13:44:34;19.70;;;11.80;;
37955;SDS011;23776;51.592;7.180;2024-03-08T13:47:01;22.67;;;12.85;;
37955;SDS011;23776;51.592;7.180;2024-03-08T13:49:29;21.02;;;11.98;;
37955;SDS011;23776;51.592;7.180;2024-03-08T13:51:55;23.63;;;12.95;;
37955;SDS011;23776;51.592;7.180;2024-03-08T13:54:23;16.90;;;11.80;;
37955;SDS011;23776;51.592;7.180;2024-03-08T13:56:49;25.33;;;12.85;;
37955;SDS011;23776;51.592;7.180;2024-03-08T13:59:17;22.50;;;12.73;;
37955;SDS011;23776;51.592;7.180;2024-03-08T14:01:43;21.38;;;12.55;;
37955;SDS011;23776;51.592;7.180;2024-03-08T14:04:09;25.35;;;13.55;;
37955;SDS011;23776;51.592;7.180;2024-03-08T14:06:34;25.70;;;14.88;;
37955;SDS011;23776;51.592;7.180;2024-03-08T14:09:00;23.77;;;12.43;;
37955;SDS011;23776;51.592;7.180;2024-03-08T14:11:26;23.65;;;13.90;;
37955;SDS011;23776;51.592;7.180;2024-03-08T14:13:52;26.33;;;14.35;;
37955;SDS011;23776;51.592;7.180;2024-03-08T14:16:18;24.05;;;12.75;;
37955;SDS011;23776;51.592;7.180;2024-03-08T14:18:44;29.15;;;14.05;;
37955;SDS011;23776;51.592;7.180;2024-03-08T14:21:10;26.75;;;14.68;;
37955;SDS011;23776;51.592;7.180;2024-03-08T14:23:35;26.63;;;15.15;;
37955;SDS011;23776;51.592;7.180;2024-03-08T14:26:01;26.92;;;14.32;;
37955;SDS011;23776;51.592;7.180;2024-03-08T14:28:29;27.48;;;14.80;;
37955;SDS011;23776;51.592;7.180;2024-03-08T14:30:55;25.83;;;14.65;;